Latest Weather Observations for Gold Coast Seaway

IDQ60801

Issued at 12:02 pm EST Friday 23 February 2018 (issued every 30 minutes, with the page automatically refreshed every 10 minutes)

About weather observations | Map of weather stations | Latest weather observations for QLD | Other Formats
Station Details ID: 040764 Name: GOLD COAST SEAWAY Lat: -27.94 Lon: 153.43 Height: 2.98 m
Data from the previous 72 hours. | See also: Recent months at Gold Coast Seaway
Date/Time
EST
Temp
°C
App
Temp
°C
Dew
Point
°C
Rel
Hum
%
Delta-T
°C
Wind Press
QNH
hPa
Press
MSL
hPa
Rain since
9am
mm
Dir  Spd
km/h
Gust
km/h
Spd
kts
Gust
kts
23/12:00pm 24.1 23.4 24.1 100 0.0 E 35 43 19 23 1013.9 1013.9 42.8
23/11:30am 24.1 23.7 24.1 100 0.0 ENE 33 41 18 22 1014.1 1014.1 41.4
23/11:00am 23.8 23.5 23.8 100 0.0 ENE 32 37 17 20 1014.4 1014.4 38.4
23/10:30am 23.1 21.0 23.1 100 0.0 ENE 39 52 21 28 1014.8 1014.8 32.0
23/10:19am 23.0 21.2 23.0 100 0.0 NE 37 50 20 27 1014.9 1014.9 27.6
23/10:00am 22.7 20.0 22.7 100 0.0 NNE 41 61 22 33 1015.2 1015.2 13.4
23/09:45am 23.5 21.3 23.5 100 0.0 ENE 41 54 22 29 1015.1 1015.1 2.0
23/09:30am 24.4 23.1 24.4 100 0.0 E 39 46 21 25 1014.7 1014.7 0.6
23/09:00am 24.4 23.8 24.4 100 0.0 E 35 44 19 24 1014.6 1014.6 30.0
23/08:30am 24.2 22.8 24.2 100 0.0 ESE 39 48 21 26 1014.4 1014.4 29.4
23/08:00am 23.4 20.7 23.4 100 0.0 E 43 54 23 29 1014.3 1014.3 28.2
23/07:30am 24.6 23.4 24.6 100 0.0 E 39 48 21 26 1014.0 1014.0 26.8
23/07:00am 24.2 22.4 24.2 100 0.0 E 41 50 22 27 1013.9 1013.9 26.8
23/06:30am 24.1 23.4 24.1 100 0.0 E 35 48 19 26 1013.5 1013.5 26.4
23/06:00am 23.8 22.1 23.8 100 0.0 E 39 46 21 25 1013.4 1013.4 24.6
23/05:30am 23.3 21.3 23.3 100 0.0 E 39 48 21 26 1013.3 1013.3 22.4
23/05:00am 23.6 22.9 23.6 100 0.0 ENE 33 44 18 24 1012.8 1012.8 12.6
23/04:30am 24.5 23.2 24.5 100 0.0 E 39 44 21 24 1012.4 1012.4 8.4
23/04:00am 24.6 23.0 24.6 100 0.0 E 41 48 22 26 1012.1 1012.1 8.4
23/03:30am 24.1 22.6 24.1 100 0.0 E 39 48 21 26 1012.1 1012.1 8.4
23/03:00am 24.2 23.5 24.2 100 0.0 E 35 41 19 22 1012.3 1012.3 8.2
23/02:30am 24.3 23.7 24.3 100 0.0 E 35 43 19 23 1012.5 1012.5 8.2
23/02:00am 24.4 23.8 24.4 100 0.0 ESE 35 41 19 22 1012.8 1012.8 8.2
23/01:30am 23.7 22.7 23.7 100 0.0 ESE 35 41 19 22 1013.1 1013.1 8.2
23/01:00am 23.9 22.3 23.9 100 0.0 E 39 48 21 26 1013.5 1013.5 7.6
23/12:30am 24.3 23.3 24.3 100 0.0 ESE 37 43 20 23 1013.7 1013.7 5.6
23/12:00am 23.5 22.4 23.5 100 0.0 SE 35 41 19 22 1014.0 1014.0 5.6
 
Date/Time
EST
Temp
°C
App
Temp
°C
Dew
Point
°C
Rel
Hum
%
Delta-T
°C
Wind Press
QNH
hPa
Press
MSL
hPa
Rain since
9am
mm
Dir  Spd
km/h
Gust
km/h
Spd
kts
Gust
kts
22/11:30pm 23.3 22.7 23.3 100 0.0 ESE 32 37 17 20 1014.5 1014.5 5.6
22/11:00pm 23.1 22.2 23.1 100 0.0 ESE 33 39 18 21 1014.8 1014.8 5.4
22/10:30pm 23.1 21.8 23.1 100 0.0 SE 35 41 19 22 1014.9 1014.9 5.0
22/10:00pm 22.6 21.4 22.6 100 0.0 SE 33 39 18 21 1015.1 1015.1 4.8
22/09:30pm 23.4 22.3 23.4 100 0.0 SE 35 41 19 22 1015.0 1015.0 3.8
22/09:00pm 22.9 20.3 22.9 100 0.0 ESE 41 52 22 28 1015.1 1015.1 3.8
22/08:57pm 22.9 21.1 22.9 100 0.0 SE 37 52 20 28 1015.0 1015.0 3.6
22/08:30pm 21.8 21.1 21.8 100 0.0 SSE 28 35 15 19 1015.1 1015.1 3.2
22/08:00pm 22.2 20.4 22.2 100 0.0 SE 35 43 19 23 1015.0 1015.0 2.2
22/07:30pm 22.3 20.2 22.3 100 0.0 SE 37 46 20 25 1015.0 1015.0 1.6
22/07:00pm 22.7 20.8 22.7 100 0.0 SE 37 48 20 26 1014.7 1014.7 1.0
22/06:30pm 22.7 21.5 22.7 100 0.0 SSE 33 41 18 22 1014.4 1014.4 0.8
22/06:00pm 22.9 20.7 22.9 100 0.0 SE 39 44 21 24 1014.3 1014.3 0.8
22/05:30pm 22.6 21.0 22.6 100 0.0 SSE 35 44 19 24 1014.0 1014.0 0.6
22/05:00pm 22.8 20.9 22.8 100 0.0 SSE 37 48 20 26 1013.7 1013.7 0.4
22/04:30pm 23.3 22.0 23.1 99 0.1 SSE 35 48 19 26 1013.6 1013.6 0.0
22/04:00pm 23.9 22.4 21.8 88 1.4 S 32 37 17 20 1013.5 1013.5 0.0
22/03:30pm 24.9 22.4 20.8 78 2.7 SE 35 41 19 22 1013.3 1013.3 0.0
22/03:00pm 25.0 23.2 21.1 79 2.6 ESE 32 37 17 20 1013.4 1013.4 0.0
22/02:30pm 25.1 22.9 20.4 75 3.1 ESE 32 37 17 20 1013.5 1013.5 0.0
22/02:00pm 25.4 22.9 19.8 71 3.6 ESE 32 37 17 20 1013.7 1013.7 0.0
22/01:30pm 24.5 21.2 19.3 73 3.3 ESE 35 48 19 26 1013.9 1013.9 0.0
22/01:00pm 25.7 22.6 19.6 69 3.9 ESE 35 39 19 21 1014.1 1014.1 0.0
22/12:30pm 26.4 23.6 20.3 69 4.0 ESE 35 41 19 22 1014.4 1014.4 0.0
22/12:00pm 26.5 24.0 20.1 68 4.2 SE 33 39 18 21 1014.6 1014.6 0.0
22/11:30am 25.8 24.9 21.5 77 2.9 SSE 28 37 15 20 1014.8 1014.8 0.0
22/11:00am 24.6 22.7 20.9 80 2.4 SSE 32 39 17 21 1015.0 1015.0 0.0
22/10:30am 24.5 22.9 20.8 80 2.4 SSE 30 37 16 20 1015.1 1015.1 0.0
22/10:10am 25.6 23.0 21.5 78 2.7 SE 37 44 20 24 1015.1 1015.1 0.0
22/10:00am 25.7 22.5 20.3 72 3.5 ESE 37 44 20 24 1015.0 1015.0 0.0
22/09:30am 25.2 22.6 21.5 80 2.5 ESE 37 43 20 23 1015.0 1015.0 0.0
22/09:00am 24.7 21.8 21.6 83 2.1 ESE 39 46 21 25 1015.1 1015.1 4.8
22/08:30am 23.9 22.5 23.7 99 0.1 ESE 37 43 20 23 1015.1 1015.1 4.8
22/08:00am 21.5 22.2 21.5 100 0.0 S 20 32 11 17 1015.3 1015.3 4.2
22/07:30am 21.2 19.4 21.2 100 0.0 S 32 39 17 21 1015.2 1015.2 4.2
22/07:00am 20.7 19.8 20.7 100 0.0 S 26 35 14 19 1015.1 1015.1 4.2
22/06:30am 20.8 19.6 20.8 100 0.0 SSE 28 37 15 20 1014.8 1014.8 4.2
22/06:00am 20.2 19.8 20.2 100 0.0 S 22 32 12 17 1014.6 1014.6 4.2
22/05:30am 19.9 19.8 19.9 100 0.0 S 20 26 11 14 1014.4 1014.4 4.2
22/05:00am 20.1 20.1 20.1 100 0.0 S 20 28 11 15 1014.0 1014.0 3.6
22/04:30am 20.8 18.3 20.8 100 0.0 SSE 35 46 19 25 1013.7 1013.7 3.4
22/04:00am 21.7 19.6 21.7 100 0.0 SE 35 46 19 25 1013.6 1013.6 3.2
22/03:30am 21.4 17.5 21.4 100 0.0 SE 44 52 24 28 1013.7 1013.7 3.0
22/03:00am 21.7 18.9 21.7 100 0.0 SE 39 48 21 26 1013.5 1013.5 2.0
22/02:30am 22.0 18.6 22.0 100 0.0 SE 43 56 23 30 1013.3 1013.3 2.0
22/02:19am 22.6 19.8 21.8 95 0.5 SE 39 52 21 28 1013.3 1013.3 1.0
22/02:00am 23.0 20.1 20.9 88 1.4 SSE 37 48 20 26 1013.2 1013.2 0.4
22/01:30am 22.9 19.2 21.5 92 0.9 SE 43 50 23 27 1013.6 1013.6 0.4
22/01:00am 23.5 20.2 20.0 81 2.3 SE 37 48 20 26 1013.7 1013.7 0.4
22/12:37am 22.8 19.8 20.7 88 1.4 SE 37 56 20 30 1014.1 1014.1 0.4
22/12:30am 22.7 18.8 19.5 82 2.0 SE 39 50 21 27 1014.3 1014.3 0.4
22/12:28am 23.2 19.0 19.8 81 2.2 SE 41 59 22 32 1014.2 1014.2 0.4
22/12:00am 23.7 19.1 19.6 78 2.6 SSE 43 54 23 29 1014.4 1014.4 0.4
 
Date/Time
EST
Temp
°C
App
Temp
°C
Dew
Point
°C
Rel
Hum
%
Delta-T
°C
Wind Press
QNH
hPa
Press
MSL
hPa
Rain since
9am
mm
Dir  Spd
km/h
Gust
km/h
Spd
kts
Gust
kts
21/11:30pm 23.7 19.1 19.6 78 2.6 SE 43 56 23 30 1014.8 1014.8 0.4
21/11:00pm 23.6 18.2 19.1 76 2.9 SE 46 57 25 31 1015.1 1015.1 0.4
21/10:30pm 23.4 17.6 18.3 73 3.2 SE 46 54 25 29 1015.2 1015.2 0.4
21/10:00pm 23.4 17.4 17.8 71 3.5 SE 46 56 25 30 1015.4 1015.4 0.4
21/09:30pm 23.6 18.0 17.8 70 3.6 SE 44 59 24 32 1015.6 1015.6 0.4
21/09:00pm 23.5 16.9 18.2 72 3.3 SE 50 59 27 32 1015.7 1015.7 0.4
21/08:30pm 23.9 18.1 18.3 71 3.5 SE 46 59 25 32 1015.4 1015.4 0.4
21/08:20pm 23.7 19.5 19.0 75 3.0 SSE 39 57 21 31 1015.4 1015.4 0.4
21/08:00pm 23.9 18.4 19.0 74 3.1 SE 46 56 25 30 1015.1 1015.1 0.4
21/07:30pm 24.0 18.8 19.7 77 2.8 SE 46 54 25 29 1014.6 1014.6 0.4
21/07:00pm 23.6 19.8 19.7 79 2.5 SE 39 52 21 28 1014.5 1014.5 0.4
21/06:30pm 23.2 18.4 19.6 80 2.3 SE 44 57 24 31 1014.2 1014.2 0.4
21/06:00pm 22.4 17.3 19.8 85 1.7 SE 46 57 25 31 1014.1 1014.1 0.4
21/05:30pm 23.1 17.7 20.1 83 1.9 SE 48 63 26 34 1013.6 1013.6 0.4
21/05:00pm 23.5 17.4 18.4 73 3.2 SSE 48 57 26 31 1013.5 1013.5 0.4
21/04:30pm 25.0 19.1 18.0 65 4.4 SE 46 56 25 30 1012.9 1012.9 0.4
21/04:00pm 25.5 20.3 18.4 65 4.5 SE 43 52 23 28 1012.8 1012.8 0.4
21/03:30pm 25.7 19.8 18.9 66 4.3 SE 48 57 26 31 1012.8 1012.8 0.4
21/03:00pm 25.7 20.4 18.6 65 4.5 SE 44 54 24 29 1012.8 1012.8 0.4
21/02:30pm 25.6 20.0 17.8 62 4.9 SE 44 54 24 29 1013.0 1013.0 0.4
21/02:00pm 26.4 20.0 16.9 56 5.9 SSE 46 57 25 31 1013.0 1013.0 0.4
21/01:30pm 27.1 21.6 19.7 64 4.8 SSE 48 61 26 33 1013.2 1013.2 0.4
21/01:00pm 26.5 20.3 19.1 64 4.8 SE 50 59 27 32 1013.4 1013.4 0.4
21/12:30pm 25.5 19.2 18.9 67 4.2 SSE 50 65 27 35 1013.7 1013.7 0.4
21/12:00pm 25.5 19.5 19.6 70 3.8 SE 50 63 27 34 1013.8 1013.8 0.2
21/11:30am 25.5 19.5 20.3 73 3.4 SE 52 61 28 33 1013.9 1013.9 0.2
21/11:00am 25.6 19.9 20.2 72 3.5 SE 50 61 27 33 1014.0 1014.0 0.2
21/10:30am 25.7 19.9 21.4 77 2.8 SE 54 63 29 34 1014.2 1014.2 0.2
21/10:00am 24.7 19.3 21.6 83 2.1 SE 52 63 28 34 1014.1 1014.1 0.2
21/09:30am 23.0 18.2 22.7 98 0.2 SSE 52 63 28 34 1014.0 1014.0 0.2
21/09:00am 22.6 17.4 22.6 100 0.0 SE 54 70 29 38 1014.1 1014.1 2.6
21/08:57am 22.3 17.6 22.1 99 0.1 SE 50 70 27 38 1014.1 1014.1 2.6
21/08:30am 23.2 17.1 20.9 87 1.5 SE 54 65 29 35 1014.1 1014.1 1.2
21/08:00am 25.3 19.5 19.9 72 3.5 SE 50 57 27 31 1013.7 1013.7 0.0
21/07:30am 25.3 19.5 20.8 76 3.0 SE 52 61 28 33 1013.3 1013.3 0.0
21/07:00am 25.2 19.9 20.9 77 2.8 SE 50 59 27 32 1013.0 1013.0 0.0
21/06:30am 25.0 19.2 20.7 77 2.8 SE 52 61 28 33 1012.8 1012.8 0.0
21/06:00am 25.0 19.5 20.5 76 2.9 SE 50 59 27 32 1012.3 1012.3 0.0
21/05:30am 24.9 18.7 20.8 78 2.7 SE 54 59 29 32 1012.1 1012.1 0.0
21/05:00am 24.9 18.8 20.2 75 3.1 SE 52 59 28 32 1012.0 1012.0 0.0
21/04:30am 25.0 20.0 20.9 78 2.7 SE 48 56 26 30 1011.8 1011.8 0.0
21/04:00am 25.0 19.8 20.5 76 2.9 SE 48 56 26 30 1011.5 1011.5 0.0
21/03:30am 25.0 20.4 20.9 78 2.7 SE 46 57 25 31 1011.2 1011.2 0.0
21/03:00am 25.0 20.0 20.9 78 2.7 SE 48 57 26 31 1011.0 1011.0 0.0
21/02:30am 24.8 19.6 20.5 77 2.8 SE 48 56 26 30 1011.0 1011.0 0.0
21/02:10am 24.7 22.8 22.0 85 1.8 SE 35 54 19 29 1010.9 1010.9 0.0
21/02:00am 24.3 21.7 21.4 84 1.9 SSE 37 52 20 28 1011.0 1011.0 0.0
21/01:30am 25.3 21.3 20.1 73 3.4 ESE 41 50 22 27 1010.9 1010.9 0.0
21/01:00am 25.3 20.6 19.4 70 3.8 ESE 43 50 23 27 1010.9 1010.9 0.0
21/12:30am 25.3 21.2 19.9 72 3.5 SE 41 48 22 26 1010.8 1010.8 0.0
21/12:00am 25.3 20.9 20.1 73 3.4 SE 43 50 23 27 1010.8 1010.8 0.0
 
Date/Time
EST
Temp
°C
App
Temp
°C
Dew
Point
°C
Rel
Hum
%
Delta-T
°C
Wind Press
QNH
hPa
Press
MSL
hPa
Rain since
9am
mm
Dir  Spd
km/h
Gust
km/h
Spd
kts
Gust
kts
20/11:30pm 25.2 20.7 20.0 73 3.4 SE 43 50 23 27 1011.0 1011.0 0.0
20/11:00pm 25.2 19.5 18.6 67 4.2 SE 46 52 25 28 1011.4 1011.4 0.0
20/10:30pm 25.2 19.6 19.6 71 3.6 SE 48 54 26 29 1011.4 1011.4 0.0
20/10:00pm 25.1 21.7 19.9 73 3.4 SE 37 50 20 27 1011.6 1011.6 0.0
20/09:30pm 25.0 21.2 18.9 69 3.9 SE 37 43 20 23 1011.7 1011.7 0.0
20/09:00pm 25.0 20.6 18.4 66 4.2 SE 39 50 21 27 1011.8 1011.8 0.0
20/08:30pm 25.1 21.0 19.2 70 3.8 SE 39 48 21 26 1011.8 1011.8 0.0
20/08:00pm 25.2 21.3 19.6 71 3.6 SE 39 50 21 27 1011.6 1011.6 0.0
20/07:30pm 25.1 20.7 19.2 70 3.8 SSE 41 52 22 28 1011.2 1011.2 0.0
20/07:00pm 25.1 19.9 18.3 66 4.3 SSE 43 52 23 28 1010.9 1010.9 0.0
20/06:30pm 25.1 20.7 18.5 67 4.2 SSE 39 50 21 27 1010.6 1010.6 0.0
20/06:00pm 25.4 20.9 18.3 65 4.5 SSE 39 50 21 27 1010.4 1010.4 0.0
20/05:30pm 26.0 21.0 18.9 65 4.5 SE 43 52 23 28 1010.3 1010.3 0.0
20/05:00pm 26.3 21.3 18.9 63 4.7 SE 43 52 23 28 1010.3 1010.3 0.0
20/04:30pm 27.1 22.8 18.7 60 5.4 SE 39 50 21 27 1010.2 1010.2 0.0
20/04:00pm 27.1 21.8 18.1 58 5.7 SSE 43 52 23 28 1010.1 1010.1 0.0
20/03:30pm 28.2 23.8 19.4 59 5.7 SE 41 50 22 27 1009.8 1009.8 0.0
20/03:00pm 28.8 24.3 18.3 53 6.7 SSE 39 46 21 25 1009.8 1009.8 0.0
20/02:30pm 29.2 25.7 19.5 56 6.3 SSE 37 50 20 27 1009.8 1009.8 0.0
20/02:00pm 29.5 25.3 18.9 53 6.9 SSE 39 46 21 25 1010.3 1010.3 0.0
20/01:30pm 29.3 24.7 18.1 51 7.2 SSE 39 48 21 26 1010.5 1010.5 0.0
20/01:00pm 29.0 24.6 18.4 52 6.8 SE 39 48 21 26 1010.6 1010.6 0.0
20/12:30pm 29.5 25.2 18.6 52 7.0 SE 39 48 21 26 1010.7 1010.7 0.0

Other Formats:

Comma delimited format used in spreadsheet applications
http://www.bom.gov.au/fwo/IDQ60801/IDQ60801.94580.axf

JavaScript Object Notation format (JSON) in row-major order
http://www.bom.gov.au/fwo/IDQ60801/IDQ60801.94580.json